Wilsonia, California
Current Conditions -  °F | °C
As of 7:56 AM on Saturday 25 Oct 2014 (Local Time) from KBIH Reporting Station
Clear Clear  
Wind Chill: 64°   Ceiling: Unl
Heat Index: 64°   Visibility: 10mi
Dew Point: 30°   Wind: 20mph
Humidity: 28%   Direction: 150°SSE
Pressure: 29.99"   Gusts: 28mph
Location:  36.7872°N, 118.66°W
Report Text: KBIH 251456Z AUTO 15017G24KT 10SM CLR 18/M01 A2999 RMK AO2 SLP111 T01781011 50008
Loading
Personal Weather Stations






























Interactive Weather Map New forecast layout! Learn more

10-Day Weather Forecast

Advertisements
Track Severe Weather on mobile